createdAt,value
2022-11-01T00:00:46.292Z,44.00
2022-11-01T00:01:46.383Z,46.50
2022-11-01T00:02:46.257Z,47.10
2022-11-01T00:03:46.247Z,47.40
2022-11-01T00:04:46.250Z,45.60
2022-11-01T00:05:46.210Z,44.00
2022-11-01T00:06:46.223Z,46.00
2022-11-01T00:07:46.229Z,47.30
2022-11-01T00:08:46.169Z,45.00
2022-11-01T00:09:46.207Z,46.60
2022-11-01T00:10:46.149Z,47.80
2022-11-01T00:11:46.141Z,47.40
2022-11-01T00:12:46.138Z,48.80
2022-11-01T00:13:46.157Z,47.70
2022-11-01T00:14:46.116Z,46.70
2022-11-01T00:15:46.139Z,47.70
2022-11-01T00:16:46.096Z,47.80
2022-11-01T00:17:46.079Z,47.50
2022-11-01T00:18:46.058Z,47.90
2022-11-01T00:19:46.066Z,47.90
2022-11-01T00:20:46.075Z,46.60
2022-11-01T00:21:46.027Z,49.20
2022-11-01T00:22:46.029Z,49.90
2022-11-01T00:23:46.012Z,49.00
2022-11-01T00:24:45.999Z,48.70
2022-11-01T00:25:46.040Z,49.70
2022-11-01T00:26:46.040Z,48.70
2022-11-01T00:27:46.985Z,49.90
2022-11-01T00:28:45.971Z,49.30
2022-11-01T00:29:45.949Z,48.70
2022-11-01T00:30:46.018Z,51.70
2022-11-01T00:31:45.922Z,54.00
2022-11-01T00:32:45.940Z,51.80
2022-11-01T00:33:45.903Z,51.90
2022-11-01T00:34:45.883Z,51.10
2022-11-01T00:35:45.907Z,51.70
2022-11-01T00:36:45.859Z,51.00
2022-11-01T00:37:45.852Z,53.00
2022-11-01T00:38:45.846Z,53.70
2022-11-01T00:39:45.829Z,52.70
2022-11-01T00:40:45.856Z,53.90
2022-11-01T00:41:45.821Z,53.20
2022-11-01T00:42:45.799Z,53.70
2022-11-01T00:43:45.788Z,52.80
2022-11-01T00:44:45.789Z,54.60
2022-11-01T00:45:45.810Z,54.70
2022-11-01T00:46:45.753Z,53.60
2022-11-01T00:47:45.756Z,55.30
2022-11-01T00:48:45.732Z,55.30
2022-11-01T00:49:45.723Z,54.60
2022-11-01T00:50:45.752Z,54.00
2022-11-01T00:51:45.733Z,55.00
2022-11-01T00:52:45.683Z,55.30
2022-11-01T00:53:45.679Z,55.00
2022-11-01T00:54:45.667Z,54.90
2022-11-01T00:55:45.698Z,55.10
2022-11-01T00:56:45.672Z,56.90
2022-11-01T00:57:45.632Z,57.30
2022-11-01T00:58:45.613Z,58.00
2022-11-01T00:59:45.658Z,55.10
2022-11-01T01:00:45.639Z,58.40
2022-11-01T01:01:45.782Z,60.20
2022-11-01T01:02:45.587Z,57.30
2022-11-01T01:03:45.561Z,57.90
2022-11-01T01:04:45.557Z,54.60
2022-11-01T01:05:45.534Z,57.10
2022-11-01T01:06:45.563Z,54.90
2022-11-01T01:07:45.514Z,57.30
2022-11-01T01:08:45.559Z,55.50
2022-11-01T01:09:45.509Z,56.20
2022-11-01T01:10:45.487Z,59.40
2022-11-01T01:11:45.508Z,55.70
2022-11-01T01:12:45.453Z,57.20
2022-11-01T01:13:45.464Z,60.00
2022-11-01T01:14:45.437Z,58.00
2022-11-01T01:15:45.431Z,59.10
2022-11-01T01:16:45.448Z,57.70
2022-11-01T01:17:45.415Z,58.30
2022-11-01T01:18:45.388Z,59.20
2022-11-01T01:19:45.437Z,58.80
2022-11-01T01:20:45.387Z,58.90
2022-11-01T01:21:45.392Z,57.30
2022-11-01T01:22:45.342Z,57.50
2022-11-01T01:23:45.341Z,59.50
2022-11-01T01:24:45.339Z,58.70
2022-11-01T01:25:45.318Z,59.80
2022-11-01T01:26:45.299Z,58.00
2022-11-01T01:27:45.340Z,59.10
2022-11-01T01:28:45.281Z,59.40
2022-11-01T01:29:45.276Z,57.90
2022-11-01T01:30:45.259Z,59.60
2022-11-01T01:31:45.250Z,57.70
2022-11-01T01:32:45.270Z,61.70
2022-11-01T01:33:45.223Z,57.40
2022-11-01T01:34:45.229Z,58.70
2022-11-01T01:35:45.208Z,57.40
2022-11-01T01:36:45.192Z,58.80
2022-11-01T01:37:45.279Z,58.70
2022-11-01T01:38:45.200Z,57.00
2022-11-01T01:39:45.183Z,59.90
2022-11-01T01:40:45.144Z,58.20
2022-11-01T01:41:45.174Z,59.90
2022-11-01T01:42:45.173Z,61.40
2022-11-01T01:43:45.116Z,59.00
2022-11-01T01:44:45.102Z,61.90
2022-11-01T01:45:45.099Z,58.30
2022-11-01T01:46:45.113Z,58.10
2022-11-01T01:47:45.108Z,59.60
2022-11-01T01:48:45.102Z,58.70
2022-11-01T01:49:45.073Z,60.20
2022-11-01T01:50:45.037Z,57.00
2022-11-01T01:51:45.031Z,58.60
2022-11-01T01:52:45.060Z,59.00
2022-11-01T01:53:45.873Z,59.70
2022-11-01T01:54:44.999Z,58.90
2022-11-01T01:55:45.234Z,59.80
2022-11-01T01:56:44.964Z,58.90
2022-11-01T01:57:44.958Z,58.60
2022-11-01T01:58:44.976Z,60.00
2022-11-01T01:59:44.934Z,58.20
2022-11-01T02:00:45.050Z,60.10
2022-11-01T02:01:45.030Z,58.00
2022-11-01T02:02:44.899Z,59.20
2022-11-01T02:03:44.924Z,59.90
2022-11-01T02:04:44.927Z,58.20
2022-11-01T02:05:44.869Z,57.80
2022-11-01T02:06:44.862Z,58.70
2022-11-01T02:07:44.871Z,60.70
2022-11-01T02:08:44.874Z,58.00
2022-11-01T02:09:44.829Z,59.00
2022-11-01T02:10:44.849Z,59.10
2022-11-01T02:11:44.793Z,59.80
2022-11-01T02:12:44.796Z,59.10
2022-11-01T02:13:44.783Z,61.30
2022-11-01T02:14:44.768Z,57.00
2022-11-01T02:15:44.796Z,56.70
2022-11-01T02:16:44.753Z,59.00
2022-11-01T02:17:44.794Z,57.90
2022-11-01T02:18:44.726Z,57.10
2022-11-01T02:19:44.719Z,59.10
2022-11-01T02:20:44.725Z,59.00
2022-11-01T02:21:44.688Z,60.50
2022-11-01T02:23:44.722Z,57.30
2022-11-01T02:24:44.698Z,59.10
2022-11-01T02:25:44.702Z,56.90
2022-11-01T02:26:44.645Z,56.10
2022-11-01T02:27:44.669Z,57.60
2022-11-01T02:28:44.632Z,57.30
2022-11-01T02:29:44.614Z,56.00
2022-11-01T02:30:44.593Z,56.90
2022-11-01T02:31:45.374Z,57.30
2022-11-01T02:32:44.606Z,56.10
2022-11-01T02:33:44.571Z,55.60
2022-11-01T02:34:44.540Z,56.10
2022-11-01T02:35:44.526Z,58.70
2022-11-01T02:36:44.605Z,55.20
2022-11-01T02:37:44.560Z,54.70
2022-11-01T02:38:44.502Z,56.40
2022-11-01T02:39:44.490Z,57.20
2022-11-01T02:40:44.524Z,54.80
2022-11-01T02:41:44.463Z,55.60
2022-11-01T02:42:44.458Z,53.90
2022-11-01T02:43:44.506Z,55.90
2022-11-01T02:44:44.439Z,55.70
2022-11-01T02:45:45.432Z,55.90
2022-11-01T02:46:44.419Z,53.80
2022-11-01T02:47:44.398Z,53.70
2022-11-01T02:48:44.422Z,54.20
2022-11-01T02:49:44.418Z,53.50
2022-11-01T02:50:44.407Z,53.40
2022-11-01T02:51:44.351Z,53.40
2022-11-01T02:52:44.350Z,54.10
2022-11-01T02:53:44.337Z,52.00
2022-11-01T02:54:44.318Z,53.60
2022-11-01T02:56:44.318Z,50.90
2022-11-01T02:57:44.281Z,50.80
2022-11-01T02:58:44.327Z,51.30
2022-11-01T02:59:44.262Z,51.30
2022-11-01T03:00:44.355Z,49.90
2022-11-01T03:01:45.008Z,50.20
2022-11-01T03:02:44.229Z,48.40
2022-11-01T03:03:44.250Z,48.40
2022-11-01T03:04:44.485Z,48.90
2022-11-01T03:05:44.200Z,49.00
2022-11-01T03:06:44.189Z,46.40
2022-11-01T03:07:44.186Z,48.90
2022-11-01T03:08:44.189Z,49.00
2022-11-01T03:09:44.206Z,47.90
2022-11-01T03:10:44.150Z,48.40
2022-11-01T03:11:44.222Z,47.60
2022-11-01T03:12:44.123Z,46.70
2022-11-01T03:13:44.151Z,45.10
2022-11-01T03:14:44.100Z,45.00
2022-11-01T03:15:44.096Z,45.90
2022-11-01T03:16:44.084Z,44.60
2022-11-01T03:17:44.062Z,44.90
2022-11-01T03:18:44.100Z,44.30
2022-11-01T03:19:44.052Z,44.20
2022-11-01T03:20:44.031Z,43.30
2022-11-01T03:21:44.029Z,44.70
2022-11-01T03:22:44.038Z,43.40
2022-11-01T03:23:44.031Z,43.50
2022-11-01T03:24:43.987Z,44.10
2022-11-01T03:25:43.982Z,42.80
2022-11-01T03:26:43.966Z,42.40
2022-11-01T03:27:43.958Z,43.70
2022-11-01T03:28:43.975Z,42.00
2022-11-01T03:29:43.960Z,41.20
2022-11-01T03:30:43.919Z,40.50
2022-11-01T03:31:43.961Z,42.40
2022-11-01T03:32:43.902Z,41.10
2022-11-01T03:33:43.931Z,39.80
2022-11-01T03:34:43.873Z,40.80
2022-11-01T03:35:43.875Z,41.60
2022-11-01T03:36:43.860Z,41.40
2022-11-01T03:37:43.837Z,40.60
2022-11-01T03:38:43.845Z,41.30
2022-11-01T03:39:43.918Z,41.60
2022-11-01T03:40:43.805Z,40.40
2022-11-01T03:41:43.793Z,41.30
2022-11-01T03:42:43.801Z,40.70
2022-11-01T03:43:43.799Z,39.90
2022-11-01T03:44:43.775Z,39.70
2022-11-01T03:45:43.751Z,39.40
2022-11-01T03:46:43.740Z,38.90
2022-11-01T03:47:43.763Z,40.50
2022-11-01T03:48:43.716Z,39.50
2022-11-01T03:49:43.734Z,39.50
2022-11-01T03:50:43.701Z,38.40
2022-11-01T03:51:43.691Z,38.50
2022-11-01T03:52:43.679Z,38.60
2022-11-01T03:53:43.671Z,37.20
2022-11-01T03:54:43.700Z,37.80
2022-11-01T03:55:43.633Z,36.60
2022-11-01T03:56:43.629Z,36.30
2022-11-01T03:57:43.619Z,35.80
2022-11-01T03:58:44.929Z,35.60
2022-11-01T03:59:43.602Z,34.80
2022-11-01T04:00:43.658Z,34.70
2022-11-01T04:01:43.701Z,35.30
2022-11-01T04:02:43.555Z,34.20
2022-11-01T04:03:43.544Z,33.80
2022-11-01T04:04:43.540Z,34.10
2022-11-01T04:05:43.560Z,33.80
2022-11-01T04:06:43.519Z,32.80
2022-11-01T04:07:43.505Z,34.90
2022-11-01T04:08:43.496Z,35.20
2022-11-01T04:09:43.730Z,33.20
2022-11-01T04:10:43.509Z,32.30
2022-11-01T04:11:50.228Z,34.00
2022-11-01T04:12:50.214Z,33.50
2022-11-01T04:13:49.397Z,32.80
2022-11-01T04:14:43.433Z,32.50
2022-11-01T04:15:43.447Z,32.60
2022-11-01T04:16:43.400Z,33.30
2022-11-01T04:17:43.401Z,33.40
2022-11-01T04:18:43.444Z,32.30
2022-11-01T04:19:43.398Z,32.60
2022-11-01T04:20:43.560Z,32.20
2022-11-01T04:21:43.360Z,31.30
2022-11-01T04:22:43.334Z,31.50
2022-11-01T04:23:43.896Z,32.00
2022-11-01T04:24:43.314Z,31.40
2022-11-01T04:25:43.301Z,31.10
2022-11-01T04:26:43.321Z,30.10
2022-11-01T04:27:43.300Z,31.20
2022-11-01T04:28:43.270Z,31.20
2022-11-01T04:29:43.287Z,31.20
2022-11-01T04:30:43.254Z,30.70
2022-11-01T04:31:43.268Z,30.00
2022-11-01T04:32:43.232Z,30.30
2022-11-01T04:33:43.211Z,30.30
2022-11-01T04:34:43.235Z,31.70
2022-11-01T04:35:43.223Z,30.90
2022-11-01T04:36:43.182Z,29.00
2022-11-01T04:37:43.219Z,28.60
2022-11-01T04:38:43.195Z,29.40
2022-11-01T04:39:43.143Z,28.10
2022-11-01T04:40:43.141Z,27.60
2022-11-01T04:41:43.115Z,27.50
2022-11-01T04:42:43.123Z,27.20
2022-11-01T04:43:43.140Z,27.70
2022-11-01T04:44:43.090Z,27.90
2022-11-01T04:45:43.071Z,27.80
2022-11-01T04:46:43.064Z,27.30
2022-11-01T04:47:43.049Z,27.50
2022-11-01T04:48:43.084Z,28.00
2022-11-01T04:49:43.034Z,28.10
2022-11-01T04:50:43.079Z,27.60
2022-11-01T04:51:43.050Z,27.90
2022-11-01T04:52:42.999Z,26.30
2022-11-01T04:53:42.989Z,29.10
2022-11-01T04:54:42.984Z,28.30
2022-11-01T04:55:42.962Z,28.70
2022-11-01T04:56:42.986Z,29.20
2022-11-01T04:57:42.957Z,28.10
2022-11-01T04:58:46.056Z,28.30
2022-11-01T04:59:42.949Z,27.80
2022-11-01T05:00:42.955Z,28.70
2022-11-01T05:01:43.978Z,27.90
2022-11-01T05:02:42.889Z,26.60
2022-11-01T05:03:42.889Z,28.00
2022-11-01T05:04:42.870Z,25.60
2022-11-01T05:05:42.890Z,25.80
2022-11-01T05:06:42.835Z,25.80
2022-11-01T05:07:42.888Z,24.80
2022-11-01T05:08:42.845Z,24.40
2022-11-01T05:09:44.916Z,25.50
2022-11-01T05:10:42.831Z,24.60
2022-11-01T05:11:42.788Z,24.90
2022-11-01T05:12:42.776Z,24.40
2022-11-01T05:13:42.771Z,22.80
2022-11-01T05:14:42.770Z,22.40
2022-11-01T05:15:59.272Z,21.40
2022-11-01T05:16:42.782Z,21.00
2022-11-01T05:17:43.001Z,21.10
2022-11-01T05:18:42.715Z,20.00
2022-11-01T05:19:42.695Z,20.40
2022-11-01T05:20:42.732Z,19.10
2022-11-01T05:21:42.682Z,19.50
2022-11-01T05:22:42.663Z,19.10
2022-11-01T05:23:42.655Z,18.60
2022-11-01T05:24:43.669Z,19.00
2022-11-01T05:25:42.662Z,17.50
2022-11-01T05:26:42.621Z,17.90
2022-11-01T05:27:42.612Z,16.80
2022-11-01T05:28:42.603Z,17.10
2022-11-01T05:29:42.584Z,17.80
2022-11-01T05:30:42.590Z,16.30
2022-11-01T05:31:42.599Z,17.10
2022-11-01T05:32:42.549Z,16.90
2022-11-01T05:33:42.545Z,17.20
2022-11-01T05:34:42.523Z,15.90
2022-11-01T05:35:42.541Z,17.50
2022-11-01T05:36:42.509Z,17.00
2022-11-01T05:37:42.493Z,17.00
2022-11-01T05:38:42.483Z,17.30
2022-11-01T05:39:42.528Z,17.00
2022-11-01T05:40:42.451Z,17.60
2022-11-01T05:41:42.483Z,17.40
2022-11-01T05:42:42.435Z,17.00
2022-11-01T05:43:42.479Z,17.50
2022-11-01T05:44:42.417Z,17.40
2022-11-01T05:45:42.398Z,15.90
2022-11-01T05:46:42.427Z,16.50
2022-11-01T05:47:42.375Z,16.60
2022-11-01T05:48:42.369Z,15.50
2022-11-01T05:49:42.363Z,16.00
2022-11-01T05:50:42.349Z,15.20
2022-11-01T05:51:42.365Z,15.30
2022-11-01T05:52:42.324Z,15.70
2022-11-01T05:53:42.325Z,15.30
2022-11-01T05:54:42.302Z,15.60
2022-11-01T05:55:42.294Z,14.90
2022-11-01T05:56:42.310Z,14.60
2022-11-01T05:57:42.962Z,15.00
2022-11-01T05:58:42.253Z,14.70
2022-11-01T05:59:42.250Z,15.10
2022-11-01T06:00:42.265Z,14.80
2022-11-01T06:01:42.488Z,14.60
2022-11-01T06:02:42.301Z,14.40
2022-11-01T06:03:42.203Z,14.20
2022-11-01T06:04:43.054Z,14.10
2022-11-01T06:05:42.182Z,13.50
2022-11-01T06:06:42.161Z,13.60
2022-11-01T06:07:42.153Z,13.20
2022-11-01T06:08:42.153Z,12.30
2022-11-01T06:09:42.135Z,12.80
2022-11-01T06:10:42.161Z,12.40
2022-11-01T06:11:42.140Z,12.70
2022-11-01T06:12:42.151Z,11.60
2022-11-01T06:13:42.092Z,11.40
2022-11-01T06:14:42.107Z,11.60
2022-11-01T06:15:42.067Z,11.20
2022-11-01T06:16:42.063Z,10.90
2022-11-01T06:17:42.050Z,11.60
2022-11-01T06:18:42.038Z,10.80
2022-11-01T06:19:42.115Z,10.80
2022-11-01T06:20:42.002Z,10.60
2022-11-01T06:21:41.997Z,10.50
2022-11-01T06:22:42.016Z,10.30
2022-11-01T06:23:41.984Z,9.80
2022-11-01T06:24:41.965Z,9.50
2022-11-01T06:25:42.040Z,9.70
2022-11-01T06:26:41.943Z,9.80
2022-11-01T06:27:41.934Z,9.30
2022-11-01T06:28:41.929Z,9.00
2022-11-01T06:29:47.888Z,9.00
2022-11-01T06:30:48.408Z,9.50
2022-11-01T06:31:48.412Z,8.90
2022-11-01T06:32:41.874Z,9.20
2022-11-01T06:33:41.878Z,9.90
2022-11-01T06:34:44.849Z,8.70
2022-11-01T06:35:41.854Z,9.10
2022-11-01T06:36:41.867Z,8.50
2022-11-01T06:37:41.856Z,9.10
2022-11-01T06:38:41.806Z,8.50
2022-11-01T06:39:41.800Z,8.80
2022-11-01T06:40:41.789Z,8.90
2022-11-01T06:41:41.790Z,8.80
2022-11-01T06:42:46.353Z,8.30
2022-11-01T06:43:41.766Z,9.40
2022-11-01T06:44:42.324Z,8.90
2022-11-01T06:45:41.739Z,8.90
2022-11-01T06:46:41.755Z,8.50
2022-11-01T06:47:41.745Z,8.20
2022-11-01T06:48:41.695Z,8.60
2022-11-01T06:49:41.698Z,8.10
2022-11-01T06:50:41.676Z,8.40
2022-11-01T06:51:41.663Z,8.30
2022-11-01T06:52:41.657Z,8.40
2022-11-01T06:53:41.691Z,8.60
2022-11-01T06:54:41.668Z,7.90
2022-11-01T06:55:41.637Z,8.70
2022-11-01T06:56:41.667Z,7.90
2022-11-01T06:57:41.637Z,8.20
2022-11-01T06:58:41.639Z,8.30
2022-11-01T06:59:41.571Z,8.40
2022-11-01T07:00:42.579Z,8.20
2022-11-01T07:01:41.667Z,8.40
2022-11-01T07:02:41.659Z,7.90
2022-11-01T07:03:41.542Z,7.90
2022-11-01T07:04:41.601Z,7.90
2022-11-01T07:05:41.610Z,8.00
2022-11-01T07:06:41.532Z,7.70
2022-11-01T07:07:41.534Z,7.90
2022-11-01T07:08:41.509Z,8.00
2022-11-01T07:09:41.690Z,8.00
2022-11-01T07:10:41.450Z,7.80
2022-11-01T07:11:41.500Z,8.10
2022-11-01T07:12:41.436Z,7.70
2022-11-01T07:13:41.457Z,7.70
2022-11-01T07:14:41.452Z,7.60
2022-11-01T07:15:41.462Z,7.00
2022-11-01T07:16:41.424Z,7.40
2022-11-01T07:17:41.387Z,6.80
2022-11-01T07:18:41.392Z,7.60
2022-11-01T07:19:41.895Z,6.90
2022-11-01T07:20:41.575Z,6.80
2022-11-01T07:21:41.325Z,7.10
2022-11-01T07:22:41.592Z,6.80
2022-11-01T07:23:41.354Z,6.60
2022-11-01T07:24:41.304Z,6.50
2022-11-01T07:25:41.284Z,6.50
2022-11-01T07:26:42.572Z,6.40
2022-11-01T07:27:41.266Z,6.30
2022-11-01T07:28:41.307Z,6.80
2022-11-01T07:29:41.434Z,6.20
2022-11-01T07:30:41.253Z,6.40
2022-11-01T07:31:41.386Z,5.60
2022-11-01T07:32:41.289Z,6.20
2022-11-01T07:33:41.236Z,5.60
2022-11-01T07:34:41.237Z,6.20
2022-11-01T07:35:42.184Z,5.30
2022-11-01T07:36:41.163Z,5.70
2022-11-01T07:37:41.187Z,5.90
2022-11-01T07:38:41.126Z,5.50
2022-11-01T07:39:41.127Z,5.80
2022-11-01T07:40:41.605Z,6.70
2022-11-01T07:41:41.102Z,5.90
2022-11-01T07:42:41.192Z,6.30
2022-11-01T07:43:41.146Z,6.10
2022-11-01T07:44:41.096Z,6.20
2022-11-01T07:45:41.058Z,6.10
2022-11-01T07:46:41.058Z,6.30
2022-11-01T07:47:41.083Z,6.30
2022-11-01T07:48:41.026Z,5.90
2022-11-01T07:49:41.010Z,6.00
2022-11-01T07:50:41.009Z,5.80
2022-11-01T07:51:41.045Z,5.30
2022-11-01T07:52:41.056Z,5.30
2022-11-01T07:53:41.003Z,5.80
2022-11-01T07:54:41.059Z,5.60
2022-11-01T07:55:42.989Z,5.50
2022-11-01T07:56:40.929Z,5.90
2022-11-01T07:57:40.970Z,5.70
2022-11-01T07:58:40.954Z,5.80
2022-11-01T07:59:40.906Z,6.00
2022-11-01T08:00:40.946Z,6.80
2022-11-01T08:01:41.018Z,6.50
2022-11-01T08:02:40.890Z,6.00
2022-11-01T08:03:40.903Z,4.70
2022-11-01T08:04:40.850Z,4.70
2022-11-01T08:05:40.871Z,5.10
2022-11-01T08:06:40.838Z,3.00
2022-11-01T08:07:40.820Z,3.10
2022-11-01T08:08:40.820Z,3.10
2022-11-01T08:09:40.831Z,2.50
2022-11-01T08:10:40.836Z,2.30
2022-11-01T08:11:41.077Z,2.70
2022-11-01T08:12:40.767Z,2.00
2022-11-01T08:13:41.078Z,1.80
2022-11-01T08:14:40.759Z,1.80
2022-11-01T08:15:40.718Z,1.50
2022-11-01T08:16:40.731Z,1.50
2022-11-01T08:17:40.745Z,1.40
2022-11-01T08:18:40.681Z,1.70
2022-11-01T08:19:40.721Z,1.60
2022-11-01T08:20:40.677Z,1.30
2022-11-01T08:21:40.664Z,2.10
2022-11-01T08:22:41.048Z,1.80
2022-11-01T08:23:40.684Z,1.50
2022-11-01T08:24:40.650Z,1.50
2022-11-01T08:25:41.538Z,1.60
2022-11-01T08:26:40.758Z,1.60
2022-11-01T08:27:40.584Z,2.00
2022-11-01T08:28:40.579Z,1.80
2022-11-01T08:29:40.632Z,2.00
2022-11-01T08:30:40.562Z,1.50
2022-11-01T08:31:40.563Z,1.70
2022-11-01T08:32:40.589Z,1.50
2022-11-01T08:33:40.820Z,1.60
2022-11-01T08:34:40.519Z,1.30
2022-11-01T08:35:42.623Z,2.20
2022-11-01T08:36:40.506Z,1.50
2022-11-01T08:37:40.547Z,1.40
2022-11-01T08:38:40.458Z,1.20
2022-11-01T08:39:40.569Z,1.20
2022-11-01T08:40:40.500Z,1.40
2022-11-01T08:41:40.481Z,1.70
2022-11-01T08:42:40.726Z,1.50
2022-11-01T08:43:40.895Z,1.40
2022-11-01T08:44:40.406Z,1.70
2022-11-01T08:45:40.453Z,1.70
2022-11-01T08:46:40.414Z,1.50
2022-11-01T08:47:40.364Z,2.00
2022-11-01T08:48:40.412Z,1.80
2022-11-01T08:49:40.354Z,1.60
2022-11-01T08:50:40.408Z,2.00
2022-11-01T08:51:40.351Z,1.50
2022-11-01T08:52:40.305Z,1.70
2022-11-01T08:53:40.324Z,1.70
2022-11-01T08:54:40.345Z,1.40
2022-11-01T08:55:40.397Z,1.50
2022-11-01T08:56:40.414Z,1.80
2022-11-01T08:57:40.262Z,1.80
2022-11-01T08:58:40.256Z,1.70
2022-11-01T08:59:41.098Z,1.60
2022-11-01T09:00:40.220Z,1.40
2022-11-01T09:01:40.436Z,1.90
2022-11-01T09:02:40.230Z,1.90
2022-11-01T09:03:40.216Z,1.70
2022-11-01T09:04:40.182Z,1.60
2022-11-01T09:05:40.991Z,1.60
2022-11-01T09:06:40.148Z,1.50
2022-11-01T09:07:40.135Z,1.50
2022-11-01T09:08:40.427Z,1.30
2022-11-01T09:09:40.112Z,1.60
2022-11-01T09:10:40.150Z,1.50
2022-11-01T09:11:41.178Z,1.70
2022-11-01T09:13:40.141Z,1.90
2022-11-01T09:14:40.080Z,1.60
2022-11-01T09:15:40.058Z,2.10
2022-11-01T09:16:40.044Z,1.70
2022-11-01T09:17:40.028Z,1.60
2022-11-01T09:18:40.013Z,1.50
2022-11-01T09:19:40.057Z,1.40
2022-11-01T09:20:40.105Z,1.70
2022-11-01T09:21:39.994Z,1.80
2022-11-01T09:22:40.007Z,1.80
2022-11-01T09:23:39.960Z,1.70
2022-11-01T09:24:39.960Z,1.50
2022-11-01T09:25:39.948Z,1.70
2022-11-01T09:26:39.928Z,1.70
2022-11-01T09:27:39.982Z,1.90
2022-11-01T09:28:39.994Z,1.60
2022-11-01T09:29:39.955Z,1.40
2022-11-01T09:30:49.524Z,2.00
2022-11-01T09:31:39.908Z,1.50
2022-11-01T09:32:39.870Z,1.50
2022-11-01T09:33:40.530Z,1.90
2022-11-01T09:34:39.834Z,2.10
2022-11-01T09:35:39.935Z,1.80
2022-11-01T09:36:40.081Z,2.10
2022-11-01T09:37:39.812Z,1.80
2022-11-01T09:38:39.844Z,2.10
2022-11-01T09:39:39.803Z,2.10
2022-11-01T09:40:39.813Z,2.00
2022-11-01T09:41:40.517Z,2.40
2022-11-01T09:42:39.850Z,2.00
2022-11-01T09:43:39.822Z,2.30
2022-11-01T09:44:39.996Z,2.10
2022-11-01T09:45:40.772Z,2.20
2022-11-01T09:46:40.510Z,2.00
2022-11-01T09:47:40.499Z,2.50
2022-11-01T09:48:39.743Z,2.10
2022-11-01T09:49:54.503Z,2.20
2022-11-01T09:50:39.695Z,1.90
2022-11-01T09:51:41.479Z,2.30
2022-11-01T09:52:39.641Z,2.10
2022-11-01T09:53:39.646Z,2.00
2022-11-01T09:54:45.936Z,2.00
2022-11-01T09:55:39.598Z,2.60
2022-11-01T09:56:39.643Z,2.70
2022-11-01T09:57:39.597Z,2.40
2022-11-01T09:58:39.624Z,2.20
2022-11-01T09:59:39.590Z,2.60
2022-11-01T10:00:39.615Z,2.70
2022-11-01T10:01:39.716Z,2.90
2022-11-01T10:02:39.593Z,2.20
2022-11-01T10:03:39.519Z,2.20
2022-11-01T10:04:39.495Z,2.90
2022-11-01T10:05:39.532Z,2.30
2022-11-01T10:06:39.502Z,2.80
2022-11-01T10:07:39.528Z,2.70
2022-11-01T10:08:39.558Z,2.30
2022-11-01T10:09:39.461Z,2.80
2022-11-01T10:10:39.442Z,3.00
2022-11-01T10:11:39.428Z,2.80
2022-11-01T10:12:39.445Z,3.20
2022-11-01T10:13:39.401Z,2.70
2022-11-01T10:14:39.440Z,2.50
2022-11-01T10:15:39.387Z,3.00
2022-11-01T10:16:39.380Z,2.80
2022-11-01T10:17:39.518Z,2.90
2022-11-01T10:18:39.367Z,3.20
2022-11-01T10:19:39.380Z,3.30
2022-11-01T10:20:39.327Z,2.90
2022-11-01T10:21:39.332Z,2.80
2022-11-01T10:22:39.418Z,2.80
2022-11-01T10:23:39.288Z,3.50
2022-11-01T10:24:39.312Z,3.40
2022-11-01T10:25:39.356Z,3.30
2022-11-01T10:26:39.291Z,3.70
2022-11-01T10:27:39.271Z,2.90
2022-11-01T10:28:39.289Z,2.80
2022-11-01T10:29:39.260Z,3.60
2022-11-01T10:30:39.243Z,3.60
2022-11-01T10:31:39.230Z,3.30
2022-11-01T10:32:39.233Z,3.70
2022-11-01T10:33:39.422Z,2.70
2022-11-01T10:34:39.224Z,2.90
2022-11-01T10:35:39.394Z,3.60
2022-11-01T10:36:39.262Z,3.60
2022-11-01T10:37:43.813Z,3.00
2022-11-01T10:39:16.645Z,2.90
2022-11-01T10:39:55.828Z,3.60
2022-11-01T10:40:39.134Z,3.10
2022-11-01T10:41:39.123Z,2.60
2022-11-01T10:42:39.116Z,3.00
2022-11-01T10:43:39.149Z,2.40
2022-11-01T10:44:39.075Z,2.60
2022-11-01T10:45:42.352Z,3.10
2022-11-01T10:46:39.072Z,3.10
2022-11-01T10:47:39.096Z,2.90
2022-11-01T10:48:39.056Z,3.00
2022-11-01T10:50:39.023Z,3.00
2022-11-01T10:51:39.984Z,2.80
2022-11-01T10:52:38.988Z,2.70
2022-11-01T10:53:38.974Z,3.20
2022-11-01T10:54:39.995Z,3.10
2022-11-01T10:55:39.023Z,2.70
2022-11-01T10:56:39.033Z,2.90
2022-11-01T10:57:38.921Z,3.70
2022-11-01T10:58:38.901Z,3.30
2022-11-01T10:59:38.911Z,2.80
2022-11-01T11:00:39.964Z,3.60
2022-11-01T11:01:39.283Z,2.90
2022-11-01T11:02:39.341Z,2.60
2022-11-01T11:03:38.944Z,2.40
2022-11-01T11:04:38.849Z,2.70
2022-11-01T11:05:38.821Z,3.50
2022-11-01T11:06:38.835Z,3.10
2022-11-01T11:07:38.959Z,2.60
2022-11-01T11:08:38.804Z,2.40
2022-11-01T11:09:38.785Z,2.90
2022-11-01T11:10:38.783Z,2.40
2022-11-01T11:11:39.794Z,2.60
2022-11-01T11:12:38.861Z,3.20
2022-11-01T11:13:38.746Z,2.80
2022-11-01T11:14:38.743Z,2.80
2022-11-01T11:15:38.740Z,2.50
2022-11-01T11:16:38.706Z,2.90
2022-11-01T11:17:38.727Z,3.10
2022-11-01T11:18:38.791Z,3.00
2022-11-01T11:19:38.729Z,3.50
2022-11-01T11:20:38.858Z,2.40
2022-11-01T11:21:38.671Z,3.20
2022-11-01T11:22:38.647Z,2.80
2022-11-01T11:23:38.778Z,3.10
2022-11-01T11:24:38.690Z,3.20
2022-11-01T11:25:39.552Z,2.70
2022-11-01T11:26:39.067Z,2.80
2022-11-01T11:27:38.765Z,2.90
2022-11-01T11:28:38.731Z,2.50
2022-11-01T11:29:38.591Z,2.60
2022-11-01T11:30:38.625Z,2.80
2022-11-01T11:31:38.604Z,2.60
2022-11-01T11:32:38.609Z,2.60
2022-11-01T11:33:38.520Z,3.20
2022-11-01T11:34:38.505Z,2.50
2022-11-01T11:35:38.571Z,2.90
2022-11-01T11:36:38.495Z,2.90
2022-11-01T11:37:38.539Z,3.30
2022-11-01T11:38:38.545Z,3.10
2022-11-01T11:39:38.460Z,3.30
2022-11-01T11:40:38.450Z,3.20
2022-11-01T11:41:38.774Z,2.50
2022-11-01T11:42:38.409Z,3.20
2022-11-01T11:43:38.393Z,2.70
2022-11-01T11:44:38.413Z,3.70
2022-11-01T11:45:38.370Z,3.10
2022-11-01T11:46:38.691Z,2.50
2022-11-01T11:47:38.406Z,3.50
2022-11-01T11:48:38.373Z,3.90
2022-11-01T11:49:38.332Z,3.50
2022-11-01T11:50:38.359Z,3.90
2022-11-01T11:51:38.322Z,3.60
2022-11-01T11:52:38.947Z,2.70
2022-11-01T11:53:38.312Z,2.80
2022-11-01T11:54:38.312Z,4.10
2022-11-01T11:55:38.424Z,3.30
2022-11-01T11:56:38.313Z,2.90
2022-11-01T11:57:39.061Z,3.10
2022-11-01T11:58:38.230Z,3.60
2022-11-01T11:59:38.336Z,3.40
2022-11-01T12:00:38.282Z,2.60
2022-11-01T12:01:39.286Z,3.00
2022-11-01T12:02:38.472Z,2.80
2022-11-01T12:03:38.186Z,3.30
2022-11-01T12:04:38.247Z,2.80
2022-11-01T12:05:38.141Z,2.70
2022-11-01T12:06:38.154Z,3.70
2022-11-01T12:07:38.154Z,3.10
2022-11-01T12:08:38.143Z,3.20
2022-11-01T12:09:38.108Z,3.20
2022-11-01T12:10:38.136Z,3.10
2022-11-01T12:11:39.134Z,3.50
2022-11-01T12:12:38.087Z,3.50
2022-11-01T12:13:38.073Z,2.80
2022-11-01T12:14:38.053Z,3.40
2022-11-01T12:15:41.104Z,3.20
2022-11-01T12:16:38.021Z,3.00
2022-11-01T12:17:38.023Z,3.90
2022-11-01T12:18:37.987Z,3.80
2022-11-01T12:19:39.016Z,3.30
2022-11-01T12:20:38.016Z,3.20
2022-11-01T12:21:38.013Z,3.40
2022-11-01T12:22:37.994Z,3.30
2022-11-01T12:23:37.938Z,3.20
2022-11-01T12:24:37.932Z,2.90
2022-11-01T12:25:38.505Z,3.60
2022-11-01T12:26:37.942Z,3.70
2022-11-01T12:27:37.911Z,2.60
2022-11-01T12:28:37.902Z,3.90
2022-11-01T12:29:38.004Z,3.20
2022-11-01T12:30:37.897Z,2.90
2022-11-01T12:31:37.842Z,3.20
2022-11-01T12:32:37.867Z,2.40
2022-11-01T12:33:37.818Z,4.60
2022-11-01T12:34:39.856Z,3.50
2022-11-01T12:35:37.844Z,3.80
2022-11-01T12:36:37.806Z,2.80
2022-11-01T12:37:37.774Z,3.50
2022-11-01T12:38:37.823Z,3.40
2022-11-01T12:39:37.776Z,3.20
2022-11-01T12:40:37.812Z,2.80
2022-11-01T12:41:37.897Z,3.30
2022-11-01T12:42:37.871Z,2.70
2022-11-01T12:43:37.750Z,3.30
2022-11-01T12:44:37.729Z,4.00
2022-11-01T12:45:37.709Z,3.30
2022-11-01T12:46:37.704Z,3.30
2022-11-01T12:47:38.713Z,3.20
2022-11-01T12:48:37.703Z,3.60
2022-11-01T12:49:37.673Z,3.20
2022-11-01T12:50:37.678Z,3.40
2022-11-01T12:51:37.695Z,3.70
2022-11-01T12:52:37.678Z,3.60
2022-11-01T12:53:37.660Z,3.00
2022-11-01T12:54:37.645Z,2.80
2022-11-01T12:55:37.612Z,2.90
2022-11-01T12:56:37.598Z,3.60
2022-11-01T12:57:37.590Z,2.10
2022-11-01T12:58:37.695Z,3.10
2022-11-01T12:59:37.558Z,2.90
2022-11-01T13:00:37.544Z,3.30
2022-11-01T13:01:37.653Z,3.50
2022-11-01T13:02:37.503Z,3.40
2022-11-01T13:03:37.846Z,3.40
2022-11-01T13:04:37.482Z,2.90
2022-11-01T13:05:37.473Z,2.90
2022-11-01T13:06:37.451Z,2.70
2022-11-01T13:07:37.500Z,2.50
2022-11-01T13:08:37.497Z,2.80
2022-11-01T13:09:37.503Z,2.50